sensor_id;sensor_type;location;lat;lon;timestamp;P1;durP1;ratioP1;P2;durP2;ratioP2
19923;SDS011;10124;53.068;18.224;2023-03-14T00:00:30;9.07;;;5.00;;
19923;SDS011;10124;53.068;18.224;2023-03-14T00:03:17;10.13;;;5.40;;
19923;SDS011;10124;53.068;18.224;2023-03-14T00:05:45;11.13;;;5.53;;
19923;SDS011;10124;53.068;18.224;2023-03-14T00:08:12;13.77;;;6.73;;
19923;SDS011;10124;53.068;18.224;2023-03-14T00:10:40;10.57;;;5.53;;
19923;SDS011;10124;53.068;18.224;2023-03-14T00:13:09;10.10;;;5.73;;
19923;SDS011;10124;53.068;18.224;2023-03-14T00:15:36;11.97;;;5.83;;
19923;SDS011;10124;53.068;18.224;2023-03-14T00:18:03;8.43;;;5.20;;
19923;SDS011;10124;53.068;18.224;2023-03-14T00:20:31;10.13;;;5.73;;
19923;SDS011;10124;53.068;18.224;2023-03-14T00:22:58;11.33;;;4.97;;
19923;SDS011;10124;53.068;18.224;2023-03-14T00:25:26;10.20;;;5.80;;
19923;SDS011;10124;53.068;18.224;2023-03-14T00:27:53;10.63;;;5.40;;
19923;SDS011;10124;53.068;18.224;2023-03-14T00:30:21;9.30;;;5.30;;
19923;SDS011;10124;53.068;18.224;2023-03-14T00:32:48;8.57;;;5.37;;
19923;SDS011;10124;53.068;18.224;2023-03-14T00:35:16;8.67;;;5.13;;
19923;SDS011;10124;53.068;18.224;2023-03-14T00:37:45;11.03;;;5.53;;
19923;SDS011;10124;53.068;18.224;2023-03-14T00:40:13;9.30;;;5.47;;
19923;SDS011;10124;53.068;18.224;2023-03-14T00:42:40;10.23;;;5.33;;
19923;SDS011;10124;53.068;18.224;2023-03-14T00:45:08;8.23;;;5.10;;
19923;SDS011;10124;53.068;18.224;2023-03-14T00:47:36;10.33;;;5.17;;
19923;SDS011;10124;53.068;18.224;2023-03-14T00:50:04;7.23;;;5.47;;
19923;SDS011;10124;53.068;18.224;2023-03-14T00:52:31;10.23;;;5.20;;
19923;SDS011;10124;53.068;18.224;2023-03-14T00:54:59;8.20;;;5.03;;
19923;SDS011;10124;53.068;18.224;2023-03-14T00:57:27;10.53;;;5.17;;
19923;SDS011;10124;53.068;18.224;2023-03-14T00:59:54;9.13;;;5.03;;
19923;SDS011;10124;53.068;18.224;2023-03-14T01:02:21;11.73;;;5.93;;
19923;SDS011;10124;53.068;18.224;2023-03-14T01:04:49;12.30;;;5.60;;
19923;SDS011;10124;53.068;18.224;2023-03-14T01:07:16;8.03;;;4.70;;
19923;SDS011;10124;53.068;18.224;2023-03-14T01:09:44;9.63;;;5.20;;
19923;SDS011;10124;53.068;18.224;2023-03-14T01:12:11;13.67;;;5.10;;
19923;SDS011;10124;53.068;18.224;2023-03-14T01:14:41;8.10;;;4.60;;
19923;SDS011;10124;53.068;18.224;2023-03-14T01:17:08;8.73;;;5.30;;
19923;SDS011;10124;53.068;18.224;2023-03-14T01:19:36;9.07;;;5.03;;
19923;SDS011;10124;53.068;18.224;2023-03-14T01:22:03;13.47;;;4.70;;
19923;SDS011;10124;53.068;18.224;2023-03-14T01:24:31;9.10;;;4.80;;
19923;SDS011;10124;53.068;18.224;2023-03-14T01:26:58;12.47;;;5.50;;
19923;SDS011;10124;53.068;18.224;2023-03-14T01:29:27;10.60;;;5.10;;
19923;SDS011;10124;53.068;18.224;2023-03-14T01:31:54;7.50;;;5.07;;
19923;SDS011;10124;53.068;18.224;2023-03-14T01:34:22;8.80;;;4.83;;
19923;SDS011;10124;53.068;18.224;2023-03-14T01:36:49;8.83;;;4.73;;
19923;SDS011;10124;53.068;18.224;2023-03-14T01:39:18;8.93;;;4.30;;
19923;SDS011;10124;53.068;18.224;2023-03-14T01:41:45;10.47;;;5.47;;
19923;SDS011;10124;53.068;18.224;2023-03-14T01:44:12;9.67;;;5.17;;
19923;SDS011;10124;53.068;18.224;2023-03-14T01:46:44;11.87;;;4.90;;
19923;SDS011;10124;53.068;18.224;2023-03-14T01:49:21;7.50;;;4.80;;
19923;SDS011;10124;53.068;18.224;2023-03-14T01:54:53;7.63;;;5.00;;
19923;SDS011;10124;53.068;18.224;2023-03-14T01:57:30;9.40;;;4.67;;
19923;SDS011;10124;53.068;18.224;2023-03-14T02:02:44;9.60;;;3.60;;
19923;SDS011;10124;53.068;18.224;2023-03-14T02:05:17;7.27;;;4.20;;
19923;SDS011;10124;53.068;18.224;2023-03-14T02:07:57;9.77;;;3.93;;
19923;SDS011;10124;53.068;18.224;2023-03-14T02:10:31;5.47;;;3.07;;
19923;SDS011;10124;53.068;18.224;2023-03-14T02:13:03;6.10;;;3.53;;
19923;SDS011;10124;53.068;18.224;2023-03-14T02:15:50;5.93;;;2.90;;
19923;SDS011;10124;53.068;18.224;2023-03-14T02:18:36;9.83;;;3.37;;
19923;SDS011;10124;53.068;18.224;2023-03-14T02:27:26;4.53;;;2.33;;
19923;SDS011;10124;53.068;18.224;2023-03-14T02:30:16;4.77;;;2.50;;
19923;SDS011;10124;53.068;18.224;2023-03-14T02:32:45;2.67;;;2.07;;
19923;SDS011;10124;53.068;18.224;2023-03-14T02:35:15;3.87;;;2.50;;
19923;SDS011;10124;53.068;18.224;2023-03-14T02:37:49;2.97;;;2.00;;
19923;SDS011;10124;53.068;18.224;2023-03-14T02:40:23;1.93;;;1.77;;
19923;SDS011;10124;53.068;18.224;2023-03-14T02:42:52;3.33;;;2.13;;
19923;SDS011;10124;53.068;18.224;2023-03-14T02:47:49;2.63;;;1.73;;
19923;SDS011;10124;53.068;18.224;2023-03-14T02:50:24;2.70;;;1.80;;
19923;SDS011;10124;53.068;18.224;2023-03-14T02:52:56;2.73;;;2.13;;
19923;SDS011;10124;53.068;18.224;2023-03-14T02:55:23;2.27;;;1.77;;
19923;SDS011;10124;53.068;18.224;2023-03-14T02:57:57;3.37;;;1.80;;
19923;SDS011;10124;53.068;18.224;2023-03-14T03:00:25;4.33;;;1.67;;
19923;SDS011;10124;53.068;18.224;2023-03-14T03:02:53;1.90;;;1.40;;
19923;SDS011;10124;53.068;18.224;2023-03-14T03:05:20;1.93;;;1.50;;
19923;SDS011;10124;53.068;18.224;2023-03-14T03:07:48;3.40;;;1.77;;
19923;SDS011;10124;53.068;18.224;2023-03-14T03:10:15;1.63;;;1.40;;
19923;SDS011;10124;53.068;18.224;2023-03-14T03:12:43;2.37;;;1.70;;
19923;SDS011;10124;53.068;18.224;2023-03-14T03:15:11;3.13;;;2.03;;
19923;SDS011;10124;53.068;18.224;2023-03-14T03:17:39;2.73;;;1.67;;
19923;SDS011;10124;53.068;18.224;2023-03-14T03:20:07;2.00;;;1.60;;
19923;SDS011;10124;53.068;18.224;2023-03-14T03:22:38;1.77;;;1.33;;
19923;SDS011;10124;53.068;18.224;2023-03-14T03:25:08;1.47;;;1.37;;
19923;SDS011;10124;53.068;18.224;2023-03-14T03:27:36;1.87;;;1.60;;
19923;SDS011;10124;53.068;18.224;2023-03-14T03:30:05;2.90;;;1.97;;
19923;SDS011;10124;53.068;18.224;2023-03-14T03:32:35;3.67;;;1.60;;
19923;SDS011;10124;53.068;18.224;2023-03-14T03:35:03;2.10;;;1.60;;
19923;SDS011;10124;53.068;18.224;2023-03-14T03:37:34;3.03;;;1.40;;
19923;SDS011;10124;53.068;18.224;2023-03-14T03:40:04;2.33;;;1.60;;
19923;SDS011;10124;53.068;18.224;2023-03-14T03:42:35;2.27;;;1.40;;
19923;SDS011;10124;53.068;18.224;2023-03-14T03:45:05;1.97;;;1.40;;
19923;SDS011;10124;53.068;18.224;2023-03-14T03:47:37;2.07;;;1.53;;
19923;SDS011;10124;53.068;18.224;2023-03-14T03:50:05;1.90;;;1.33;;
19923;SDS011;10124;53.068;18.224;2023-03-14T03:52:33;1.30;;;1.20;;
19923;SDS011;10124;53.068;18.224;2023-03-14T03:55:00;2.10;;;1.50;;
19923;SDS011;10124;53.068;18.224;2023-03-14T03:57:28;7.33;;;2.40;;
19923;SDS011;10124;53.068;18.224;2023-03-14T03:59:56;2.63;;;1.80;;
19923;SDS011;10124;53.068;18.224;2023-03-14T04:02:23;2.83;;;1.67;;
19923;SDS011;10124;53.068;18.224;2023-03-14T04:04:51;2.73;;;1.57;;
19923;SDS011;10124;53.068;18.224;2023-03-14T04:07:19;2.83;;;1.80;;
19923;SDS011;10124;53.068;18.224;2023-03-14T04:09:46;2.27;;;1.67;;
19923;SDS011;10124;53.068;18.224;2023-03-14T04:12:36;3.63;;;1.90;;
19923;SDS011;10124;53.068;18.224;2023-03-14T04:15:07;2.07;;;1.60;;
19923;SDS011;10124;53.068;18.224;2023-03-14T04:17:37;3.13;;;1.97;;
19923;SDS011;10124;53.068;18.224;2023-03-14T04:20:04;3.30;;;1.70;;
19923;SDS011;10124;53.068;18.224;2023-03-14T04:22:38;6.13;;;1.97;;
19923;SDS011;10124;53.068;18.224;2023-03-14T04:25:09;3.40;;;2.30;;
19923;SDS011;10124;53.068;18.224;2023-03-14T04:27:42;4.27;;;2.67;;
19923;SDS011;10124;53.068;18.224;2023-03-14T04:30:17;2.43;;;2.00;;
19923;SDS011;10124;53.068;18.224;2023-03-14T04:33:11;4.33;;;2.13;;
19923;SDS011;10124;53.068;18.224;2023-03-14T04:35:46;5.93;;;2.87;;
19923;SDS011;10124;53.068;18.224;2023-03-14T04:38:15;2.63;;;1.87;;
19923;SDS011;10124;53.068;18.224;2023-03-14T04:40:45;4.73;;;2.70;;
19923;SDS011;10124;53.068;18.224;2023-03-14T04:43:14;5.73;;;2.90;;
19923;SDS011;10124;53.068;18.224;2023-03-14T04:45:49;3.77;;;2.53;;
19923;SDS011;10124;53.068;18.224;2023-03-14T04:48:17;6.23;;;3.20;;
19923;SDS011;10124;53.068;18.224;2023-03-14T04:50:45;5.07;;;3.53;;
19923;SDS011;10124;53.068;18.224;2023-03-14T04:53:15;5.40;;;3.77;;
19923;SDS011;10124;53.068;18.224;2023-03-14T04:55:51;5.23;;;3.43;;
19923;SDS011;10124;53.068;18.224;2023-03-14T04:58:21;10.00;;;3.73;;
19923;SDS011;10124;53.068;18.224;2023-03-14T05:00:51;4.30;;;3.50;;
19923;SDS011;10124;53.068;18.224;2023-03-14T05:03:54;6.13;;;3.40;;
19923;SDS011;10124;53.068;18.224;2023-03-14T05:06:41;6.60;;;3.53;;
19923;SDS011;10124;53.068;18.224;2023-03-14T05:09:29;6.03;;;3.53;;
19923;SDS011;10124;53.068;18.224;2023-03-14T05:12:21;7.50;;;4.00;;
19923;SDS011;10124;53.068;18.224;2023-03-14T05:15:08;5.73;;;4.00;;
19923;SDS011;10124;53.068;18.224;2023-03-14T05:17:56;6.30;;;4.20;;
19923;SDS011;10124;53.068;18.224;2023-03-14T05:20:41;6.10;;;4.37;;
19923;SDS011;10124;53.068;18.224;2023-03-14T05:23:29;6.27;;;4.40;;
19923;SDS011;10124;53.068;18.224;2023-03-14T05:26:15;7.00;;;4.13;;
19923;SDS011;10124;53.068;18.224;2023-03-14T05:28:57;5.70;;;4.20;;
19923;SDS011;10124;53.068;18.224;2023-03-14T05:31:42;6.33;;;4.10;;
19923;SDS011;10124;53.068;18.224;2023-03-14T05:34:22;8.97;;;5.20;;
19923;SDS011;10124;53.068;18.224;2023-03-14T05:37:22;7.00;;;4.87;;
19923;SDS011;10124;53.068;18.224;2023-03-14T05:40:08;7.17;;;4.73;;
19923;SDS011;10124;53.068;18.224;2023-03-14T05:43:02;11.73;;;4.23;;
19923;SDS011;10124;53.068;18.224;2023-03-14T05:45:46;9.07;;;4.20;;
19923;SDS011;10124;53.068;18.224;2023-03-14T05:48:45;11.33;;;4.53;;
19923;SDS011;10124;53.068;18.224;2023-03-14T05:51:45;5.87;;;4.17;;
19923;SDS011;10124;53.068;18.224;2023-03-14T05:54:41;7.70;;;4.20;;
19923;SDS011;10124;53.068;18.224;2023-03-14T05:57:37;9.47;;;5.40;;
19923;SDS011;10124;53.068;18.224;2023-03-14T06:00:34;9.77;;;4.93;;
19923;SDS011;10124;53.068;18.224;2023-03-14T06:03:17;10.57;;;4.70;;
19923;SDS011;10124;53.068;18.224;2023-03-14T06:05:49;8.90;;;4.57;;
19923;SDS011;10124;53.068;18.224;2023-03-14T06:08:19;9.27;;;5.10;;
19923;SDS011;10124;53.068;18.224;2023-03-14T06:10:47;9.20;;;4.70;;
19923;SDS011;10124;53.068;18.224;2023-03-14T06:13:15;8.67;;;5.23;;
19923;SDS011;10124;53.068;18.224;2023-03-14T06:15:43;11.03;;;5.17;;
19923;SDS011;10124;53.068;18.224;2023-03-14T06:18:11;10.47;;;3.87;;
19923;SDS011;10124;53.068;18.224;2023-03-14T06:20:42;8.83;;;4.50;;
19923;SDS011;10124;53.068;18.224;2023-03-14T06:23:13;9.57;;;4.47;;
19923;SDS011;10124;53.068;18.224;2023-03-14T06:25:41;6.63;;;4.70;;
19923;SDS011;10124;53.068;18.224;2023-03-14T06:28:08;8.67;;;4.67;;
19923;SDS011;10124;53.068;18.224;2023-03-14T06:30:36;7.67;;;4.53;;
19923;SDS011;10124;53.068;18.224;2023-03-14T06:33:03;8.63;;;4.93;;
19923;SDS011;10124;53.068;18.224;2023-03-14T06:35:31;7.67;;;4.80;;
19923;SDS011;10124;53.068;18.224;2023-03-14T06:37:58;9.07;;;5.10;;
19923;SDS011;10124;53.068;18.224;2023-03-14T06:40:26;11.77;;;5.23;;
19923;SDS011;10124;53.068;18.224;2023-03-14T06:43:05;9.13;;;4.80;;
19923;SDS011;10124;53.068;18.224;2023-03-14T06:45:36;10.10;;;5.27;;
19923;SDS011;10124;53.068;18.224;2023-03-14T06:48:03;20.03;;;11.33;;
19923;SDS011;10124;53.068;18.224;2023-03-14T06:50:37;16.57;;;8.73;;
19923;SDS011;10124;53.068;18.224;2023-03-14T06:53:05;10.03;;;6.27;;
19923;SDS011;10124;53.068;18.224;2023-03-14T06:55:36;14.50;;;8.03;;
19923;SDS011;10124;53.068;18.224;2023-03-14T06:58:06;40.80;;;22.63;;
19923;SDS011;10124;53.068;18.224;2023-03-14T07:00:41;26.73;;;18.73;;
19923;SDS011;10124;53.068;18.224;2023-03-14T07:03:10;8.03;;;5.67;;
19923;SDS011;10124;53.068;18.224;2023-03-14T07:05:41;8.50;;;4.40;;
19923;SDS011;10124;53.068;18.224;2023-03-14T07:08:08;9.53;;;4.67;;
19923;SDS011;10124;53.068;18.224;2023-03-14T07:10:36;8.37;;;4.77;;
19923;SDS011;10124;53.068;18.224;2023-03-14T07:13:06;8.57;;;4.43;;
19923;SDS011;10124;53.068;18.224;2023-03-14T07:15:38;8.50;;;4.60;;
19923;SDS011;10124;53.068;18.224;2023-03-14T07:18:09;10.97;;;4.83;;
19923;SDS011;10124;53.068;18.224;2023-03-14T07:20:36;7.47;;;5.30;;
19923;SDS011;10124;53.068;18.224;2023-03-14T07:23:05;6.43;;;4.63;;
19923;SDS011;10124;53.068;18.224;2023-03-14T07:25:40;9.83;;;5.10;;
19923;SDS011;10124;53.068;18.224;2023-03-14T07:28:08;11.83;;;4.80;;
19923;SDS011;10124;53.068;18.224;2023-03-14T07:30:38;6.83;;;4.37;;
19923;SDS011;10124;53.068;18.224;2023-03-14T07:33:13;9.83;;;5.20;;
19923;SDS011;10124;53.068;18.224;2023-03-14T07:35:41;6.77;;;4.50;;
19923;SDS011;10124;53.068;18.224;2023-03-14T07:38:08;10.40;;;5.13;;
19923;SDS011;10124;53.068;18.224;2023-03-14T07:40:44;9.63;;;5.07;;
19923;SDS011;10124;53.068;18.224;2023-03-14T07:43:11;6.60;;;4.47;;
19923;SDS011;10124;53.068;18.224;2023-03-14T07:45:47;11.23;;;4.50;;
19923;SDS011;10124;53.068;18.224;2023-03-14T07:48:17;10.57;;;4.70;;
19923;SDS011;10124;53.068;18.224;2023-03-14T07:50:47;8.13;;;4.70;;
19923;SDS011;10124;53.068;18.224;2023-03-14T07:53:15;9.47;;;4.47;;
19923;SDS011;10124;53.068;18.224;2023-03-14T07:55:43;10.83;;;4.03;;
19923;SDS011;10124;53.068;18.224;2023-03-14T07:58:12;10.93;;;4.97;;
19923;SDS011;10124;53.068;18.224;2023-03-14T08:00:39;7.83;;;5.03;;
19923;SDS011;10124;53.068;18.224;2023-03-14T08:03:07;8.17;;;4.10;;
19923;SDS011;10124;53.068;18.224;2023-03-14T08:05:37;7.37;;;3.87;;
19923;SDS011;10124;53.068;18.224;2023-03-14T08:08:06;6.93;;;4.77;;
19923;SDS011;10124;53.068;18.224;2023-03-14T08:10:33;6.90;;;4.40;;
19923;SDS011;10124;53.068;18.224;2023-03-14T08:13:01;6.83;;;4.83;;
19923;SDS011;10124;53.068;18.224;2023-03-14T08:15:29;8.60;;;4.60;;
19923;SDS011;10124;53.068;18.224;2023-03-14T08:17:56;7.13;;;4.27;;
19923;SDS011;10124;53.068;18.224;2023-03-14T08:20:25;7.23;;;3.63;;
19923;SDS011;10124;53.068;18.224;2023-03-14T08:22:55;5.33;;;3.60;;
19923;SDS011;10124;53.068;18.224;2023-03-14T08:25:25;7.20;;;3.63;;
19923;SDS011;10124;53.068;18.224;2023-03-14T08:27:53;7.47;;;3.97;;
19923;SDS011;10124;53.068;18.224;2023-03-14T08:30:21;6.93;;;3.50;;
19923;SDS011;10124;53.068;18.224;2023-03-14T08:32:49;6.03;;;2.87;;
19923;SDS011;10124;53.068;18.224;2023-03-14T08:35:17;7.10;;;3.97;;
19923;SDS011;10124;53.068;18.224;2023-03-14T08:37:44;7.73;;;3.90;;
19923;SDS011;10124;53.068;18.224;2023-03-14T08:40:12;6.20;;;3.20;;
19923;SDS011;10124;53.068;18.224;2023-03-14T08:42:40;4.60;;;3.50;;
19923;SDS011;10124;53.068;18.224;2023-03-14T08:45:08;4.93;;;3.10;;
19923;SDS011;10124;53.068;18.224;2023-03-14T08:47:38;5.87;;;3.20;;
19923;SDS011;10124;53.068;18.224;2023-03-14T08:50:06;4.83;;;2.93;;
19923;SDS011;10124;53.068;18.224;2023-03-14T08:52:34;4.73;;;2.90;;
19923;SDS011;10124;53.068;18.224;2023-03-14T08:55:02;4.57;;;2.90;;
19923;SDS011;10124;53.068;18.224;2023-03-14T08:57:30;5.73;;;3.03;;
19923;SDS011;10124;53.068;18.224;2023-03-14T08:59:58;6.60;;;3.73;;
19923;SDS011;10124;53.068;18.224;2023-03-14T09:02:25;6.30;;;2.77;;
19923;SDS011;10124;53.068;18.224;2023-03-14T09:04:53;4.30;;;2.83;;
19923;SDS011;10124;53.068;18.224;2023-03-14T09:07:21;7.17;;;3.23;;
19923;SDS011;10124;53.068;18.224;2023-03-14T09:09:48;4.67;;;2.97;;
19923;SDS011;10124;53.068;18.224;2023-03-14T09:12:16;6.13;;;2.80;;
19923;SDS011;10124;53.068;18.224;2023-03-14T09:14:43;4.77;;;2.27;;
19923;SDS011;10124;53.068;18.224;2023-03-14T09:17:10;3.47;;;2.70;;
19923;SDS011;10124;53.068;18.224;2023-03-14T09:19:38;3.33;;;2.40;;
19923;SDS011;10124;53.068;18.224;2023-03-14T09:22:05;5.50;;;3.13;;
19923;SDS011;10124;53.068;18.224;2023-03-14T09:24:32;3.33;;;2.40;;
19923;SDS011;10124;53.068;18.224;2023-03-14T09:27:00;3.53;;;2.43;;
19923;SDS011;10124;53.068;18.224;2023-03-14T09:29:27;3.60;;;2.47;;
19923;SDS011;10124;53.068;18.224;2023-03-14T09:31:54;3.57;;;2.30;;
19923;SDS011;10124;53.068;18.224;2023-03-14T09:34:23;3.60;;;2.13;;
19923;SDS011;10124;53.068;18.224;2023-03-14T09:36:51;2.70;;;1.83;;
19923;SDS011;10124;53.068;18.224;2023-03-14T09:39:19;3.30;;;2.20;;
19923;SDS011;10124;53.068;18.224;2023-03-14T09:41:46;4.20;;;2.37;;
19923;SDS011;10124;53.068;18.224;2023-03-14T09:44:18;3.77;;;2.47;;
19923;SDS011;10124;53.068;18.224;2023-03-14T09:47:04;5.33;;;2.67;;
19923;SDS011;10124;53.068;18.224;2023-03-14T09:49:36;4.43;;;2.50;;
19923;SDS011;10124;53.068;18.224;2023-03-14T09:57:24;3.75;;;2.38;;
19923;SDS011;10124;53.068;18.224;2023-03-14T09:59:54;5.30;;;3.45;;
19923;SDS011;10124;53.068;18.224;2023-03-14T10:02:27;3.95;;;2.40;;
19923;SDS011;10124;53.068;18.224;2023-03-14T10:05:00;4.55;;;2.42;;
19923;SDS011;10124;53.068;18.224;2023-03-14T10:07:32;6.75;;;2.65;;
19923;SDS011;10124;53.068;18.224;2023-03-14T10:10:00;4.47;;;2.10;;
19923;SDS011;10124;53.068;18.224;2023-03-14T10:12:31;6.03;;;2.15;;
19923;SDS011;10124;53.068;18.224;2023-03-14T10:15:04;5.18;;;2.00;;
19923;SDS011;10124;53.068;18.224;2023-03-14T10:17:41;3.35;;;2.25;;
19923;SDS011;10124;53.068;18.224;2023-03-14T10:23:04;6.07;;;2.35;;
19923;SDS011;10124;53.068;18.224;2023-03-14T10:25:34;5.18;;;2.90;;
19923;SDS011;10124;53.068;18.224;2023-03-14T10:28:10;5.97;;;2.17;;
19923;SDS011;10124;53.068;18.224;2023-03-14T10:31:00;4.45;;;2.17;;
19923;SDS011;10124;53.068;18.224;2023-03-14T10:33:28;5.57;;;2.07;;
19923;SDS011;10124;53.068;18.224;2023-03-14T10:36:02;3.70;;;2.10;;
19923;SDS011;10124;53.068;18.224;2023-03-14T10:38:43;3.58;;;2.30;;
19923;SDS011;10124;53.068;18.224;2023-03-14T10:41:23;4.25;;;2.13;;
19923;SDS011;10124;53.068;18.224;2023-03-14T10:43:58;6.43;;;2.03;;
19923;SDS011;10124;53.068;18.224;2023-03-14T10:46:29;7.63;;;2.58;;
19923;SDS011;10124;53.068;18.224;2023-03-14T10:49:28;5.23;;;2.57;;
19923;SDS011;10124;53.068;18.224;2023-03-14T10:52:13;5.33;;;2.47;;
19923;SDS011;10124;53.068;18.224;2023-03-14T10:55:10;6.20;;;2.23;;
19923;SDS011;10124;53.068;18.224;2023-03-14T10:57:39;4.53;;;2.47;;
19923;SDS011;10124;53.068;18.224;2023-03-14T11:00:17;7.73;;;2.63;;
19923;SDS011;10124;53.068;18.224;2023-03-14T11:11:19;4.70;;;2.10;;
19923;SDS011;10124;53.068;18.224;2023-03-14T11:16:50;6.10;;;2.13;;
19923;SDS011;10124;53.068;18.224;2023-03-14T11:19:38;4.20;;;2.03;;
19923;SDS011;10124;53.068;18.224;2023-03-14T11:25:02;5.87;;;2.50;;
19923;SDS011;10124;53.068;18.224;2023-03-14T11:27:48;5.13;;;2.05;;
19923;SDS011;10124;53.068;18.224;2023-03-14T11:30:39;7.03;;;2.23;;
19923;SDS011;10124;53.068;18.224;2023-03-14T11:33:21;8.43;;;2.60;;
19923;SDS011;10124;53.068;18.224;2023-03-14T11:36:03;7.13;;;2.30;;
19923;SDS011;10124;53.068;18.224;2023-03-14T11:38:46;4.93;;;2.07;;
19923;SDS011;10124;53.068;18.224;2023-03-14T11:44:10;7.70;;;2.40;;
19923;SDS011;10124;53.068;18.224;2023-03-14T11:46:50;6.28;;;2.40;;
19923;SDS011;10124;53.068;18.224;2023-03-14T11:51:52;5.23;;;2.27;;
19923;SDS011;10124;53.068;18.224;2023-03-14T11:57:36;3.95;;;2.08;;
19923;SDS011;10124;53.068;18.224;2023-03-14T12:10:48;5.97;;;2.60;;
19923;SDS011;10124;53.068;18.224;2023-03-14T12:13:19;5.68;;;2.60;;
19923;SDS011;10124;53.068;18.224;2023-03-14T12:15:49;4.55;;;2.40;;
19923;SDS011;10124;53.068;18.224;2023-03-14T12:18:29;5.10;;;2.72;;
19923;SDS011;10124;53.068;18.224;2023-03-14T12:21:02;4.60;;;2.17;;
19923;SDS011;10124;53.068;18.224;2023-03-14T12:23:50;8.00;;;2.47;;
19923;SDS011;10124;53.068;18.224;2023-03-14T12:26:22;5.78;;;2.95;;
19923;SDS011;10124;53.068;18.224;2023-03-14T12:39:35;6.32;;;2.70;;
19923;SDS011;10124;53.068;18.224;2023-03-14T12:48:50;6.72;;;2.72;;
19923;SDS011;10124;53.068;18.224;2023-03-14T12:51:39;4.20;;;2.70;;
19923;SDS011;10124;53.068;18.224;2023-03-14T12:59:30;8.85;;;2.20;;
19923;SDS011;10124;53.068;18.224;2023-03-14T13:02:02;8.07;;;2.20;;
19923;SDS011;10124;53.068;18.224;2023-03-14T13:10:00;7.70;;;2.70;;
19923;SDS011;10124;53.068;18.224;2023-03-14T13:12:30;6.50;;;2.60;;
19923;SDS011;10124;53.068;18.224;2023-03-14T13:17:51;5.07;;;2.30;;
19923;SDS011;10124;53.068;18.224;2023-03-14T13:20:22;8.15;;;2.13;;
19923;SDS011;10124;53.068;18.224;2023-03-14T13:22:56;5.18;;;2.40;;
19923;SDS011;10124;53.068;18.224;2023-03-14T13:25:23;3.53;;;2.13;;
19923;SDS011;10124;53.068;18.224;2023-03-14T13:27:57;2.40;;;1.63;;
19923;SDS011;10124;53.068;18.224;2023-03-14T13:30:26;7.28;;;2.50;;
19923;SDS011;10124;53.068;18.224;2023-03-14T13:32:56;4.85;;;2.05;;
19923;SDS011;10124;53.068;18.224;2023-03-14T13:35:27;6.80;;;2.58;;
19923;SDS011;10124;53.068;18.224;2023-03-14T13:38:04;3.92;;;2.10;;
19923;SDS011;10124;53.068;18.224;2023-03-14T13:40:39;8.07;;;2.80;;
19923;SDS011;10124;53.068;18.224;2023-03-14T13:43:18;5.85;;;2.30;;
19923;SDS011;10124;53.068;18.224;2023-03-14T13:45:49;5.90;;;2.10;;
19923;SDS011;10124;53.068;18.224;2023-03-14T13:48:42;3.40;;;1.77;;
19923;SDS011;10124;53.068;18.224;2023-03-14T13:51:12;5.22;;;2.38;;
19923;SDS011;10124;53.068;18.224;2023-03-14T13:53:54;3.63;;;2.10;;
19923;SDS011;10124;53.068;18.224;2023-03-14T13:56:24;6.40;;;1.90;;
19923;SDS011;10124;53.068;18.224;2023-03-14T13:58:52;3.92;;;1.90;;
19923;SDS011;10124;53.068;18.224;2023-03-14T14:01:24;5.95;;;2.05;;
19923;SDS011;10124;53.068;18.224;2023-03-14T14:04:01;5.47;;;2.30;;
19923;SDS011;10124;53.068;18.224;2023-03-14T14:06:35;3.10;;;1.90;;
19923;SDS011;10124;53.068;18.224;2023-03-14T14:09:12;4.97;;;2.10;;
19923;SDS011;10124;53.068;18.224;2023-03-14T14:17:38;6.20;;;2.30;;
19923;SDS011;10124;53.068;18.224;2023-03-14T14:20:23;4.40;;;2.00;;
19923;SDS011;10124;53.068;18.224;2023-03-14T14:23:07;3.85;;;2.35;;
19923;SDS011;10124;53.068;18.224;2023-03-14T14:25:38;6.87;;;2.17;;
19923;SDS011;10124;53.068;18.224;2023-03-14T14:34:00;7.07;;;2.23;;
19923;SDS011;10124;53.068;18.224;2023-03-14T14:36:39;10.70;;;2.80;;
19923;SDS011;10124;53.068;18.224;2023-03-14T14:39:21;4.73;;;2.50;;
19923;SDS011;10124;53.068;18.224;2023-03-14T14:41:52;7.37;;;2.30;;
19923;SDS011;10124;53.068;18.224;2023-03-14T14:44:21;5.30;;;2.40;;
19923;SDS011;10124;53.068;18.224;2023-03-14T14:46:57;6.88;;;2.03;;
19923;SDS011;10124;53.068;18.224;2023-03-14T14:49:29;7.53;;;2.43;;
19923;SDS011;10124;53.068;18.224;2023-03-14T14:52:04;5.55;;;2.20;;
19923;SDS011;10124;53.068;18.224;2023-03-14T14:54:40;5.80;;;2.45;;
19923;SDS011;10124;53.068;18.224;2023-03-14T14:57:41;7.53;;;2.30;;
19923;SDS011;10124;53.068;18.224;2023-03-14T15:00:23;6.13;;;2.47;;
19923;SDS011;10124;53.068;18.224;2023-03-14T15:03:35;6.57;;;2.60;;
19923;SDS011;10124;53.068;18.224;2023-03-14T15:06:12;7.47;;;2.40;;
19923;SDS011;10124;53.068;18.224;2023-03-14T15:08:52;6.53;;;2.28;;
19923;SDS011;10124;53.068;18.224;2023-03-14T15:11:24;8.40;;;2.47;;
19923;SDS011;10124;53.068;18.224;2023-03-14T15:13:56;3.50;;;2.03;;
19923;SDS011;10124;53.068;18.224;2023-03-14T15:16:56;4.00;;;1.60;;
19923;SDS011;10124;53.068;18.224;2023-03-14T15:19:25;3.17;;;2.08;;
19923;SDS011;10124;53.068;18.224;2023-03-14T15:22:01;3.72;;;2.10;;
19923;SDS011;10124;53.068;18.224;2023-03-14T15:24:35;5.72;;;2.63;;
19923;SDS011;10124;53.068;18.224;2023-03-14T15:27:08;3.83;;;1.88;;
19923;SDS011;10124;53.068;18.224;2023-03-14T15:29:42;3.40;;;1.95;;
19923;SDS011;10124;53.068;18.224;2023-03-14T15:32:13;5.43;;;1.75;;
19923;SDS011;10124;53.068;18.224;2023-03-14T15:34:43;3.15;;;1.80;;
19923;SDS011;10124;53.068;18.224;2023-03-14T15:37:14;5.18;;;2.25;;
19923;SDS011;10124;53.068;18.224;2023-03-14T15:39:45;3.70;;;1.50;;
19923;SDS011;10124;53.068;18.224;2023-03-14T15:42:14;2.80;;;1.35;;
19923;SDS011;10124;53.068;18.224;2023-03-14T15:44:42;12.57;;;7.28;;
19923;SDS011;10124;53.068;18.224;2023-03-14T15:47:09;3.53;;;2.15;;
19923;SDS011;10124;53.068;18.224;2023-03-14T15:49:38;13.88;;;8.93;;
19923;SDS011;10124;53.068;18.224;2023-03-14T15:52:06;5.85;;;2.55;;
19923;SDS011;10124;53.068;18.224;2023-03-14T15:54:34;5.47;;;2.47;;
19923;SDS011;10124;53.068;18.224;2023-03-14T15:57:02;6.78;;;2.10;;
19923;SDS011;10124;53.068;18.224;2023-03-14T15:59:31;8.18;;;1.88;;
19923;SDS011;10124;53.068;18.224;2023-03-14T16:01:58;5.65;;;2.75;;
19923;SDS011;10124;53.068;18.224;2023-03-14T16:04:26;6.22;;;2.65;;
19923;SDS011;10124;53.068;18.224;2023-03-14T16:06:56;5.88;;;2.08;;
19923;SDS011;10124;53.068;18.224;2023-03-14T16:09:24;5.13;;;2.53;;
19923;SDS011;10124;53.068;18.224;2023-03-14T16:11:53;7.47;;;2.70;;
19923;SDS011;10124;53.068;18.224;2023-03-14T16:14:21;5.53;;;3.07;;
19923;SDS011;10124;53.068;18.224;2023-03-14T16:16:51;7.83;;;3.53;;
19923;SDS011;10124;53.068;18.224;2023-03-14T16:19:19;7.60;;;3.13;;
19923;SDS011;10124;53.068;18.224;2023-03-14T16:21:47;8.37;;;1.90;;
19923;SDS011;10124;53.068;18.224;2023-03-14T16:24:18;12.03;;;4.43;;
19923;SDS011;10124;53.068;18.224;2023-03-14T16:26:46;12.03;;;5.77;;
19923;SDS011;10124;53.068;18.224;2023-03-14T16:29:14;5.27;;;2.07;;
19923;SDS011;10124;53.068;18.224;2023-03-14T16:31:43;4.80;;;2.20;;
19923;SDS011;10124;53.068;18.224;2023-03-14T16:34:11;9.03;;;3.03;;
19923;SDS011;10124;53.068;18.224;2023-03-14T16:36:39;7.30;;;3.07;;
19923;SDS011;10124;53.068;18.224;2023-03-14T16:39:06;6.77;;;2.63;;
19923;SDS011;10124;53.068;18.224;2023-03-14T16:41:34;5.73;;;2.20;;
19923;SDS011;10124;53.068;18.224;2023-03-14T16:44:02;6.10;;;2.50;;